sensor_id;sensor_type;location;lat;lon;timestamp;pressure;altitude;pressure_sealevel;temperature;humidity
17521;BME280;8878;-33.370;-70.552;2023-01-31T00:01:21;91711.56;;;29.71;35.82
17521;BME280;8878;-33.370;-70.552;2023-01-31T00:03:54;91708.16;;;29.45;35.55
17521;BME280;8878;-33.370;-70.552;2023-01-31T00:06:27;91715.16;;;29.46;35.50
17521;BME280;8878;-33.370;-70.552;2023-01-31T00:08:58;91714.03;;;29.15;35.75
17521;BME280;8878;-33.370;-70.552;2023-01-31T00:11:29;91717.06;;;29.56;35.08
17521;BME280;8878;-33.370;-70.552;2023-01-31T00:13:59;91720.19;;;29.51;35.63
17521;BME280;8878;-33.370;-70.552;2023-01-31T00:16:29;91727.59;;;29.33;35.64
17521;BME280;8878;-33.370;-70.552;2023-01-31T00:19:01;91731.91;;;29.02;36.22
17521;BME280;8878;-33.370;-70.552;2023-01-31T00:21:31;91732.31;;;28.90;36.41
17521;BME280;8878;-33.370;-70.552;2023-01-31T00:24:01;91736.94;;;29.11;36.11
17521;BME280;8878;-33.370;-70.552;2023-01-31T00:26:33;91736.06;;;29.56;35.59
17521;BME280;8878;-33.370;-70.552;2023-01-31T00:29:04;91742.63;;;29.84;34.82
17521;BME280;8878;-33.370;-70.552;2023-01-31T00:31:35;91735.59;;;29.90;35.25
17521;BME280;8878;-33.370;-70.552;2023-01-31T00:34:15;91744.53;;;29.94;35.14
17521;BME280;8878;-33.370;-70.552;2023-01-31T00:36:44;91740.25;;;29.89;35.37
17521;BME280;8878;-33.370;-70.552;2023-01-31T00:39:13;91743.78;;;29.79;36.28
17521;BME280;8878;-33.370;-70.552;2023-01-31T00:41:43;91752.78;;;29.58;36.57
17521;BME280;8878;-33.370;-70.552;2023-01-31T00:44:12;91762.13;;;29.50;37.10
17521;BME280;8878;-33.370;-70.552;2023-01-31T00:46:41;91763.28;;;29.53;37.05
17521;BME280;8878;-33.370;-70.552;2023-01-31T00:49:11;91756.72;;;29.40;38.14
17521;BME280;8878;-33.370;-70.552;2023-01-31T00:51:42;91757.47;;;29.33;38.10
17521;BME280;8878;-33.370;-70.552;2023-01-31T00:54:12;91759.41;;;29.22;38.56
17521;BME280;8878;-33.370;-70.552;2023-01-31T00:56:41;91760.97;;;29.16;38.98
17521;BME280;8878;-33.370;-70.552;2023-01-31T00:59:11;91754.78;;;29.08;38.49
17521;BME280;8878;-33.370;-70.552;2023-01-31T01:01:40;91746.25;;;29.03;38.67
17521;BME280;8878;-33.370;-70.552;2023-01-31T01:04:12;91751.31;;;28.90;39.21
17521;BME280;8878;-33.370;-70.552;2023-01-31T01:06:43;91757.50;;;28.87;39.36
17521;BME280;8878;-33.370;-70.552;2023-01-31T01:09:13;91755.13;;;28.71;39.42
17521;BME280;8878;-33.370;-70.552;2023-01-31T01:11:43;91757.09;;;28.67;40.12
17521;BME280;8878;-33.370;-70.552;2023-01-31T01:14:14;91754.38;;;28.60;39.60
17521;BME280;8878;-33.370;-70.552;2023-01-31T01:16:43;91758.63;;;28.58;39.99
17521;BME280;8878;-33.370;-70.552;2023-01-31T01:19:17;91748.19;;;28.56;39.39
17521;BME280;8878;-33.370;-70.552;2023-01-31T01:21:53;91762.88;;;28.41;39.98
17521;BME280;8878;-33.370;-70.552;2023-01-31T01:24:24;91754.72;;;28.37;40.04
17521;BME280;8878;-33.370;-70.552;2023-01-31T01:26:54;91760.91;;;28.27;40.43
17521;BME280;8878;-33.370;-70.552;2023-01-31T01:29:24;91755.47;;;28.24;40.40
17521;BME280;8878;-33.370;-70.552;2023-01-31T01:31:53;91754.72;;;28.27;40.10
17521;BME280;8878;-33.370;-70.552;2023-01-31T01:34:22;91762.44;;;28.25;40.35
17521;BME280;8878;-33.370;-70.552;2023-01-31T01:36:53;91752.75;;;28.24;41.07
17521;BME280;8878;-33.370;-70.552;2023-01-31T01:39:32;91760.41;;;27.97;41.23
17521;BME280;8878;-33.370;-70.552;2023-01-31T01:42:26;91755.34;;;27.85;41.82
17521;BME280;8878;-33.370;-70.552;2023-01-31T01:44:57;91759.19;;;27.87;41.53
17521;BME280;8878;-33.370;-70.552;2023-01-31T01:47:36;91758.41;;;27.76;41.76
17521;BME280;8878;-33.370;-70.552;2023-01-31T01:50:10;91754.09;;;27.68;42.05
17521;BME280;8878;-33.370;-70.552;2023-01-31T01:52:44;91760.66;;;27.67;41.86
17521;BME280;8878;-33.370;-70.552;2023-01-31T01:55:20;91759.50;;;27.68;41.96
17521;BME280;8878;-33.370;-70.552;2023-01-31T01:57:54;91756.50;;;27.84;41.52
17521;BME280;8878;-33.370;-70.552;2023-01-31T02:00:27;91751.38;;;27.68;41.74
17521;BME280;8878;-33.370;-70.552;2023-01-31T02:03:07;91758.28;;;27.55;42.21
17521;BME280;8878;-33.370;-70.552;2023-01-31T02:05:40;91757.88;;;27.53;42.40
17521;BME280;8878;-33.370;-70.552;2023-01-31T02:08:12;91759.44;;;27.54;41.91
17521;BME280;8878;-33.370;-70.552;2023-01-31T02:10:47;91758.19;;;27.41;43.02
17521;BME280;8878;-33.370;-70.552;2023-01-31T02:13:17;91754.63;;;27.26;43.93
17521;BME280;8878;-33.370;-70.552;2023-01-31T02:15:47;91758.03;;;27.12;44.29
17521;BME280;8878;-33.370;-70.552;2023-01-31T02:18:18;91755.31;;;27.12;45.13
17521;BME280;8878;-33.370;-70.552;2023-01-31T02:32:58;91746.28;;;26.94;45.22
17521;BME280;8878;-33.370;-70.552;2023-01-31T02:35:39;91745.13;;;26.95;44.41
17521;BME280;8878;-33.370;-70.552;2023-01-31T02:38:22;91747.09;;;26.98;44.76
17521;BME280;8878;-33.370;-70.552;2023-01-31T02:41:01;91742.34;;;26.88;45.17
17521;BME280;8878;-33.370;-70.552;2023-01-31T02:43:58;91748.47;;;26.81;44.78
17521;BME280;8878;-33.370;-70.552;2023-01-31T02:46:52;91744.16;;;26.73;45.18
17521;BME280;8878;-33.370;-70.552;2023-01-31T02:49:32;91744.47;;;26.65;44.93
17521;BME280;8878;-33.370;-70.552;2023-01-31T02:52:14;91739.78;;;26.58;45.87
17521;BME280;8878;-33.370;-70.552;2023-01-31T02:54:51;91747.53;;;26.60;45.09
17521;BME280;8878;-33.370;-70.552;2023-01-31T02:57:41;91733.59;;;26.58;45.48
17521;BME280;8878;-33.370;-70.552;2023-01-31T03:00:12;91732.50;;;26.66;44.63
17521;BME280;8878;-33.370;-70.552;2023-01-31T03:02:47;91730.22;;;26.68;44.80
17521;BME280;8878;-33.370;-70.552;2023-01-31T03:05:20;91730.50;;;26.56;45.25
17521;BME280;8878;-33.370;-70.552;2023-01-31T03:07:51;91733.81;;;26.38;45.67
17521;BME280;8878;-33.370;-70.552;2023-01-31T03:10:39;91725.28;;;26.33;46.26
17521;BME280;8878;-33.370;-70.552;2023-01-31T03:13:30;91722.06;;;26.24;45.93
17521;BME280;8878;-33.370;-70.552;2023-01-31T03:16:14;91722.84;;;26.24;45.61
17521;BME280;8878;-33.370;-70.552;2023-01-31T03:19:31;91717.53;;;26.31;45.73
17521;BME280;8878;-33.370;-70.552;2023-01-31T03:22:08;91714.06;;;26.31;45.92
17521;BME280;8878;-33.370;-70.552;2023-01-31T03:24:43;91707.06;;;26.26;46.03
17521;BME280;8878;-33.370;-70.552;2023-01-31T03:27:23;91704.28;;;26.19;45.95
17521;BME280;8878;-33.370;-70.552;2023-01-31T03:29:58;91705.41;;;26.18;46.43
17521;BME280;8878;-33.370;-70.552;2023-01-31T03:32:32;91704.72;;;26.25;44.68
17521;BME280;8878;-33.370;-70.552;2023-01-31T03:35:03;91710.81;;;26.18;44.82
17521;BME280;8878;-33.370;-70.552;2023-01-31T03:37:38;91709.25;;;26.17;46.55
17521;BME280;8878;-33.370;-70.552;2023-01-31T03:40:15;91710.47;;;26.23;45.88
17521;BME280;8878;-33.370;-70.552;2023-01-31T03:42:57;91715.44;;;26.14;46.80
17521;BME280;8878;-33.370;-70.552;2023-01-31T03:45:33;91705.34;;;26.11;46.15
17521;BME280;8878;-33.370;-70.552;2023-01-31T03:48:06;91712.94;;;25.98;47.11
17521;BME280;8878;-33.370;-70.552;2023-01-31T03:50:50;91712.50;;;25.93;46.93
17521;BME280;8878;-33.370;-70.552;2023-01-31T03:53:26;91710.53;;;25.90;47.04
17521;BME280;8878;-33.370;-70.552;2023-01-31T03:56:00;91703.16;;;25.87;47.16
17521;BME280;8878;-33.370;-70.552;2023-01-31T03:58:37;91713.50;;;25.78;47.08
17521;BME280;8878;-33.370;-70.552;2023-01-31T04:01:10;91707.47;;;25.91;46.84
17521;BME280;8878;-33.370;-70.552;2023-01-31T04:03:42;91706.69;;;25.91;46.70
17521;BME280;8878;-33.370;-70.552;2023-01-31T04:06:13;91705.47;;;25.85;46.78
17521;BME280;8878;-33.370;-70.552;2023-01-31T04:08:44;91704.69;;;25.84;47.27
17521;BME280;8878;-33.370;-70.552;2023-01-31T04:11:14;91697.38;;;25.85;47.44
17521;BME280;8878;-33.370;-70.552;2023-01-31T04:13:44;91703.91;;;25.84;46.99
17521;BME280;8878;-33.370;-70.552;2023-01-31T04:16:14;91704.19;;;25.71;47.43
17521;BME280;8878;-33.370;-70.552;2023-01-31T04:18:45;91701.00;;;25.66;47.62
17521;BME280;8878;-33.370;-70.552;2023-01-31T04:21:14;91696.25;;;25.56;47.67
17521;BME280;8878;-33.370;-70.552;2023-01-31T04:23:47;91701.28;;;25.57;47.65
17521;BME280;8878;-33.370;-70.552;2023-01-31T04:26:17;91698.94;;;25.56;47.81
17521;BME280;8878;-33.370;-70.552;2023-01-31T04:28:47;91694.38;;;25.60;47.66
17521;BME280;8878;-33.370;-70.552;2023-01-31T04:31:17;91705.56;;;25.58;48.02
17521;BME280;8878;-33.370;-70.552;2023-01-31T04:33:47;91694.28;;;25.53;48.39
17521;BME280;8878;-33.370;-70.552;2023-01-31T04:36:25;91693.50;;;25.52;47.56
17521;BME280;8878;-33.370;-70.552;2023-01-31T04:38:58;91691.16;;;25.51;48.13
17521;BME280;8878;-33.370;-70.552;2023-01-31T04:41:28;91692.19;;;25.39;48.33
17521;BME280;8878;-33.370;-70.552;2023-01-31T04:44:00;91688.25;;;25.33;48.50
17521;BME280;8878;-33.370;-70.552;2023-01-31T04:46:39;91694.78;;;25.32;48.52
17521;BME280;8878;-33.370;-70.552;2023-01-31T04:49:08;91691.28;;;25.28;48.40
17521;BME280;8878;-33.370;-70.552;2023-01-31T04:51:40;91689.31;;;25.25;48.54
17521;BME280;8878;-33.370;-70.552;2023-01-31T04:54:11;91683.50;;;25.23;48.38
17521;BME280;8878;-33.370;-70.552;2023-01-31T04:56:40;91685.56;;;25.33;47.96
17521;BME280;8878;-33.370;-70.552;2023-01-31T04:59:09;91677.97;;;25.42;47.83
17521;BME280;8878;-33.370;-70.552;2023-01-31T05:02:03;91676.81;;;25.43;47.80
17521;BME280;8878;-33.370;-70.552;2023-01-31T05:04:34;91675.34;;;25.49;47.31
17521;BME280;8878;-33.370;-70.552;2023-01-31T05:07:03;91673.03;;;25.51;47.33
17521;BME280;8878;-33.370;-70.552;2023-01-31T05:09:35;91679.44;;;25.36;47.82
17521;BME280;8878;-33.370;-70.552;2023-01-31T05:12:07;91672.34;;;25.24;48.55
17521;BME280;8878;-33.370;-70.552;2023-01-31T05:14:36;91667.13;;;25.09;49.60
17521;BME280;8878;-33.370;-70.552;2023-01-31T05:17:07;91671.25;;;24.99;50.11
17521;BME280;8878;-33.370;-70.552;2023-01-31T05:19:36;91673.09;;;24.95;50.42
17521;BME280;8878;-33.370;-70.552;2023-01-31T05:22:05;91672.97;;;24.88;49.68
17521;BME280;8878;-33.370;-70.552;2023-01-31T05:24:36;91666.91;;;24.91;49.48
17521;BME280;8878;-33.370;-70.552;2023-01-31T05:27:06;91661.41;;;24.87;49.64
17521;BME280;8878;-33.370;-70.552;2023-01-31T05:29:35;91663.31;;;24.87;49.07
17521;BME280;8878;-33.370;-70.552;2023-01-31T05:32:04;91661.53;;;24.94;49.33
17521;BME280;8878;-33.370;-70.552;2023-01-31T05:34:35;91665.34;;;24.90;49.23
17521;BME280;8878;-33.370;-70.552;2023-01-31T05:37:04;91655.75;;;24.92;49.09
17521;BME280;8878;-33.370;-70.552;2023-01-31T05:39:35;91656.00;;;24.87;48.85
17521;BME280;8878;-33.370;-70.552;2023-01-31T05:42:07;91653.13;;;24.73;49.90
17521;BME280;8878;-33.370;-70.552;2023-01-31T05:44:36;91645.34;;;24.68;50.31
17521;BME280;8878;-33.370;-70.552;2023-01-31T05:47:06;91646.91;;;24.69;49.90
17521;BME280;8878;-33.370;-70.552;2023-01-31T05:49:35;91644.31;;;24.76;49.95
17521;BME280;8878;-33.370;-70.552;2023-01-31T05:52:05;91644.22;;;24.69;50.50
17521;BME280;8878;-33.370;-70.552;2023-01-31T05:54:36;91645.41;;;24.72;50.92
17521;BME280;8878;-33.370;-70.552;2023-01-31T05:57:05;91643.41;;;24.65;51.12
17521;BME280;8878;-33.370;-70.552;2023-01-31T05:59:35;91642.88;;;24.56;51.12
17521;BME280;8878;-33.370;-70.552;2023-01-31T06:02:07;91645.56;;;24.56;51.04
17521;BME280;8878;-33.370;-70.552;2023-01-31T06:04:37;91638.28;;;24.60;51.04
17521;BME280;8878;-33.370;-70.552;2023-01-31T06:07:06;91639.44;;;24.59;51.35
17521;BME280;8878;-33.370;-70.552;2023-01-31T06:09:38;91641.16;;;24.71;50.77
17521;BME280;8878;-33.370;-70.552;2023-01-31T06:12:12;91638.72;;;24.62;50.20
17521;BME280;8878;-33.370;-70.552;2023-01-31T06:14:42;91637.91;;;24.58;49.28
17521;BME280;8878;-33.370;-70.552;2023-01-31T06:17:12;91633.72;;;24.38;49.44
17521;BME280;8878;-33.370;-70.552;2023-01-31T06:19:42;91631.31;;;24.29;50.09
17521;BME280;8878;-33.370;-70.552;2023-01-31T06:22:11;91632.91;;;24.34;49.55
17521;BME280;8878;-33.370;-70.552;2023-01-31T06:24:42;91640.75;;;24.42;49.72
17521;BME280;8878;-33.370;-70.552;2023-01-31T06:27:11;91635.41;;;24.46;50.00
17521;BME280;8878;-33.370;-70.552;2023-01-31T06:29:40;91634.03;;;24.59;49.64
17521;BME280;8878;-33.370;-70.552;2023-01-31T06:32:10;91630.09;;;24.53;48.30
17521;BME280;8878;-33.370;-70.552;2023-01-31T06:34:40;91640.44;;;24.47;49.53
17521;BME280;8878;-33.370;-70.552;2023-01-31T06:37:10;91631.47;;;24.40;49.27
17521;BME280;8878;-33.370;-70.552;2023-01-31T06:39:41;91632.41;;;24.51;49.35
17521;BME280;8878;-33.370;-70.552;2023-01-31T06:42:12;91637.69;;;24.44;49.18
17521;BME280;8878;-33.370;-70.552;2023-01-31T06:44:41;91628.16;;;24.50;48.85
17521;BME280;8878;-33.370;-70.552;2023-01-31T06:47:10;91628.06;;;24.73;48.60
17521;BME280;8878;-33.370;-70.552;2023-01-31T06:49:41;91623.97;;;24.82;47.69
17521;BME280;8878;-33.370;-70.552;2023-01-31T06:52:10;91617.44;;;24.83;48.36
17521;BME280;8878;-33.370;-70.552;2023-01-31T06:54:41;91612.97;;;24.68;48.98
17521;BME280;8878;-33.370;-70.552;2023-01-31T06:57:12;91617.47;;;24.57;49.08
17521;BME280;8878;-33.370;-70.552;2023-01-31T06:59:42;91612.88;;;24.61;49.38
17521;BME280;8878;-33.370;-70.552;2023-01-31T07:02:20;91605.56;;;24.62;49.45
17521;BME280;8878;-33.370;-70.552;2023-01-31T07:04:49;91613.22;;;24.56;49.16
17521;BME280;8878;-33.370;-70.552;2023-01-31T07:07:18;91611.75;;;24.62;47.46
17521;BME280;8878;-33.370;-70.552;2023-01-31T07:09:59;91615.91;;;24.56;49.48
17521;BME280;8878;-33.370;-70.552;2023-01-31T07:12:28;91609.63;;;24.48;50.21
17521;BME280;8878;-33.370;-70.552;2023-01-31T07:15:07;91616.06;;;24.40;49.52
17521;BME280;8878;-33.370;-70.552;2023-01-31T07:17:41;91606.38;;;24.36;50.05
17521;BME280;8878;-33.370;-70.552;2023-01-31T07:20:34;91607.31;;;24.21;50.59
17521;BME280;8878;-33.370;-70.552;2023-01-31T07:23:05;91597.09;;;24.10;50.59
17521;BME280;8878;-33.370;-70.552;2023-01-31T07:25:36;91606.28;;;24.06;50.25
17521;BME280;8878;-33.370;-70.552;2023-01-31T07:28:05;91599.41;;;24.08;50.05
17521;BME280;8878;-33.370;-70.552;2023-01-31T07:30:35;91590.47;;;24.04;50.51
17521;BME280;8878;-33.370;-70.552;2023-01-31T07:33:06;91597.00;;;24.03;50.13
17521;BME280;8878;-33.370;-70.552;2023-01-31T07:35:36;91591.22;;;24.01;49.86
17521;BME280;8878;-33.370;-70.552;2023-01-31T07:38:05;91600.00;;;23.98;50.42
17521;BME280;8878;-33.370;-70.552;2023-01-31T07:40:36;91594.91;;;23.93;50.72
17521;BME280;8878;-33.370;-70.552;2023-01-31T07:43:05;91605.75;;;23.97;50.53
17521;BME280;8878;-33.370;-70.552;2023-01-31T07:45:35;91606.22;;;24.02;50.26
17521;BME280;8878;-33.370;-70.552;2023-01-31T07:48:06;91597.84;;;24.07;50.19
17521;BME280;8878;-33.370;-70.552;2023-01-31T07:50:44;91605.03;;;24.00;49.92
17521;BME280;8878;-33.370;-70.552;2023-01-31T07:53:14;91605.81;;;24.00;49.84
17521;BME280;8878;-33.370;-70.552;2023-01-31T07:55:45;91601.00;;;23.90;50.30
17521;BME280;8878;-33.370;-70.552;2023-01-31T07:58:15;91607.91;;;23.88;50.83
17521;BME280;8878;-33.370;-70.552;2023-01-31T08:00:44;91599.34;;;23.82;50.79
17521;BME280;8878;-33.370;-70.552;2023-01-31T08:03:34;91597.06;;;23.84;50.89
17521;BME280;8878;-33.370;-70.552;2023-01-31T08:06:08;91591.56;;;23.77;51.05
17521;BME280;8878;-33.370;-70.552;2023-01-31T08:08:40;91604.22;;;23.73;50.99
17521;BME280;8878;-33.370;-70.552;2023-01-31T08:11:12;91604.63;;;23.75;50.81
17521;BME280;8878;-33.370;-70.552;2023-01-31T08:13:42;91607.97;;;23.68;50.66
17521;BME280;8878;-33.370;-70.552;2023-01-31T08:16:12;91611.63;;;23.79;51.82
17521;BME280;8878;-33.370;-70.552;2023-01-31T08:18:41;91615.09;;;23.80;51.96
17521;BME280;8878;-33.370;-70.552;2023-01-31T08:21:11;91631.25;;;23.80;51.45
17521;BME280;8878;-33.370;-70.552;2023-01-31T08:23:43;91611.19;;;23.77;51.38
17521;BME280;8878;-33.370;-70.552;2023-01-31T08:26:17;91614.56;;;23.71;51.85
17521;BME280;8878;-33.370;-70.552;2023-01-31T08:28:48;91617.13;;;23.64;51.77
17521;BME280;8878;-33.370;-70.552;2023-01-31T08:31:21;91625.13;;;23.60;51.64
17521;BME280;8878;-33.370;-70.552;2023-01-31T08:33:52;91622.38;;;23.57;51.35
17521;BME280;8878;-33.370;-70.552;2023-01-31T08:36:22;91623.09;;;23.54;51.11
17521;BME280;8878;-33.370;-70.552;2023-01-31T08:38:52;91636.56;;;23.54;51.17
17521;BME280;8878;-33.370;-70.552;2023-01-31T08:41:24;91637.28;;;23.51;51.54
17521;BME280;8878;-33.370;-70.552;2023-01-31T08:43:54;91631.16;;;23.54;52.25
17521;BME280;8878;-33.370;-70.552;2023-01-31T08:46:24;91633.81;;;23.50;51.69
17521;BME280;8878;-33.370;-70.552;2023-01-31T08:48:55;91638.31;;;23.46;51.83
17521;BME280;8878;-33.370;-70.552;2023-01-31T08:51:25;91639.69;;;23.56;51.33
17521;BME280;8878;-33.370;-70.552;2023-01-31T08:53:54;91639.38;;;23.61;51.70
17521;BME280;8878;-33.370;-70.552;2023-01-31T08:56:25;91637.16;;;23.66;51.11
17521;BME280;8878;-33.370;-70.552;2023-01-31T08:58:55;91642.78;;;23.80;50.60
17521;BME280;8878;-33.370;-70.552;2023-01-31T09:01:25;91645.44;;;23.77;50.42
17521;BME280;8878;-33.370;-70.552;2023-01-31T09:03:55;91645.75;;;23.72;50.48
17521;BME280;8878;-33.370;-70.552;2023-01-31T09:06:25;91644.09;;;23.67;50.78
17521;BME280;8878;-33.370;-70.552;2023-01-31T09:08:56;91642.63;;;23.70;50.60
17521;BME280;8878;-33.370;-70.552;2023-01-31T09:11:29;91637.53;;;23.65;51.33
17521;BME280;8878;-33.370;-70.552;2023-01-31T09:13:59;91651.72;;;23.62;52.14
17521;BME280;8878;-33.370;-70.552;2023-01-31T09:16:28;91649.84;;;23.47;52.82
17521;BME280;8878;-33.370;-70.552;2023-01-31T09:18:57;91656.38;;;23.46;52.93
17521;BME280;8878;-33.370;-70.552;2023-01-31T09:21:27;91657.25;;;23.50;52.33
17521;BME280;8878;-33.370;-70.552;2023-01-31T09:23:58;91668.47;;;23.52;51.93
17521;BME280;8878;-33.370;-70.552;2023-01-31T09:26:29;91669.06;;;23.45;52.04
17521;BME280;8878;-33.370;-70.552;2023-01-31T09:29:07;91672.03;;;23.40;52.26
17521;BME280;8878;-33.370;-70.552;2023-01-31T09:31:36;91678.94;;;23.37;52.89
17521;BME280;8878;-33.370;-70.552;2023-01-31T09:34:07;91682.88;;;23.43;52.29
17521;BME280;8878;-33.370;-70.552;2023-01-31T09:36:36;91677.94;;;23.26;53.35
17521;BME280;8878;-33.370;-70.552;2023-01-31T09:39:06;91677.94;;;23.26;53.14
17521;BME280;8878;-33.370;-70.552;2023-01-31T09:41:42;91684.44;;;23.25;52.94
17521;BME280;8878;-33.370;-70.552;2023-01-31T09:44:26;91682.03;;;23.20;53.30
17521;BME280;8878;-33.370;-70.552;2023-01-31T09:47:01;91683.88;;;23.16;53.92
17521;BME280;8878;-33.370;-70.552;2023-01-31T09:49:42;91687.56;;;23.08;53.26
17521;BME280;8878;-33.370;-70.552;2023-01-31T09:52:12;91694.84;;;23.08;53.76
17521;BME280;8878;-33.370;-70.552;2023-01-31T09:54:42;91695.78;;;23.15;53.67
17521;BME280;8878;-33.370;-70.552;2023-01-31T09:57:22;91698.03;;;23.13;53.59
17521;BME280;8878;-33.370;-70.552;2023-01-31T09:59:57;91692.06;;;23.04;52.34
17521;BME280;8878;-33.370;-70.552;2023-01-31T10:02:41;91698.03;;;23.13;53.25
17521;BME280;8878;-33.370;-70.552;2023-01-31T10:05:25;91701.41;;;23.10;52.90
17521;BME280;8878;-33.370;-70.552;2023-01-31T10:08:03;91709.88;;;23.09;52.91
17521;BME280;8878;-33.370;-70.552;2023-01-31T10:10:37;91710.03;;;23.16;53.07
17521;BME280;8878;-33.370;-70.552;2023-01-31T10:13:16;91721.69;;;23.23;52.68
17521;BME280;8878;-33.370;-70.552;2023-01-31T10:15:51;91721.63;;;23.20;53.18
17521;BME280;8878;-33.370;-70.552;2023-01-31T10:18:47;91731.69;;;23.23;53.07
17521;BME280;8878;-33.370;-70.552;2023-01-31T10:21:21;91735.50;;;23.22;52.50
17521;BME280;8878;-33.370;-70.552;2023-01-31T10:24:04;91733.22;;;23.24;52.74
17521;BME280;8878;-33.370;-70.552;2023-01-31T10:26:40;91739.91;;;23.30;52.39
17521;BME280;8878;-33.370;-70.552;2023-01-31T10:29:16;91748.53;;;23.39;52.22
17521;BME280;8878;-33.370;-70.552;2023-01-31T10:31:56;91745.84;;;23.39;51.50
17521;BME280;8878;-33.370;-70.552;2023-01-31T10:36:59;91757.41;;;23.39;51.34
17521;BME280;8878;-33.370;-70.552;2023-01-31T10:39:33;91759.06;;;23.44;51.25
17521;BME280;8878;-33.370;-70.552;2023-01-31T10:42:17;91752.16;;;23.47;52.47
17521;BME280;8878;-33.370;-70.552;2023-01-31T10:45:03;91757.84;;;23.41;52.27
17521;BME280;8878;-33.370;-70.552;2023-01-31T10:47:47;91768.44;;;23.34;52.37
17521;BME280;8878;-33.370;-70.552;2023-01-31T10:50:30;91766.31;;;23.24;52.04
17521;BME280;8878;-33.370;-70.552;2023-01-31T10:53:12;91772.31;;;23.18;51.53
17521;BME280;8878;-33.370;-70.552;2023-01-31T10:55:58;91779.50;;;23.29;51.70
17521;BME280;8878;-33.370;-70.552;2023-01-31T10:58:30;91782.50;;;23.43;50.82
17521;BME280;8878;-33.370;-70.552;2023-01-31T11:01:03;91783.50;;;23.55;50.20
17521;BME280;8878;-33.370;-70.552;2023-01-31T11:03:34;91781.06;;;23.65;49.64
17521;BME280;8878;-33.370;-70.552;2023-01-31T11:06:05;91787.97;;;23.86;49.25
17521;BME280;8878;-33.370;-70.552;2023-01-31T11:08:47;91787.00;;;23.94;49.23
17521;BME280;8878;-33.370;-70.552;2023-01-31T11:11:18;91787.13;;;24.01;49.18
17521;BME280;8878;-33.370;-70.552;2023-01-31T11:13:56;91790.47;;;24.17;48.84
17521;BME280;8878;-33.370;-70.552;2023-01-31T11:16:29;91789.59;;;24.29;49.03
17521;BME280;8878;-33.370;-70.552;2023-01-31T11:19:02;91788.69;;;24.44;48.74
17521;BME280;8878;-33.370;-70.552;2023-01-31T11:21:34;91786.50;;;24.53;48.79
17521;BME280;8878;-33.370;-70.552;2023-01-31T11:24:06;91798.28;;;24.64;48.64
17521;BME280;8878;-33.370;-70.552;2023-01-31T11:26:50;91786.81;;;24.71;48.29
17521;BME280;8878;-33.370;-70.552;2023-01-31T11:29:31;91792.38;;;24.81;47.83
17521;BME280;8878;-33.370;-70.552;2023-01-31T11:32:05;91793.03;;;24.98;47.81
17521;BME280;8878;-33.370;-70.552;2023-01-31T11:34:55;91803.72;;;24.90;47.46
17521;BME280;8878;-33.370;-70.552;2023-01-31T11:37:25;91802.28;;;24.96;47.38
17521;BME280;8878;-33.370;-70.552;2023-01-31T11:39:56;91808.75;;;25.15;47.83
17521;BME280;8878;-33.370;-70.552;2023-01-31T11:42:26;91820.50;;;25.29;46.60
17521;BME280;8878;-33.370;-70.552;2023-01-31T11:44:58;91817.19;;;25.40;46.35
17521;BME280;8878;-33.370;-70.552;2023-01-31T11:47:41;91817.97;;;25.40;45.80
17521;BME280;8878;-33.370;-70.552;2023-01-31T11:50:20;91820.50;;;25.56;45.30
17521;BME280;8878;-33.370;-70.552;2023-01-31T11:52:54;91817.59;;;25.68;45.03
17521;BME280;8878;-33.370;-70.552;2023-01-31T11:55:26;91827.88;;;25.85;44.26
17521;BME280;8878;-33.370;-70.552;2023-01-31T11:57:58;91830.78;;;25.47;44.02
17521;BME280;8878;-33.370;-70.552;2023-01-31T12:00:32;91831.16;;;25.19;45.12
17521;BME280;8878;-33.370;-70.552;2023-01-31T12:03:05;91829.25;;;24.96;46.21
17521;BME280;8878;-33.370;-70.552;2023-01-31T12:05:39;91829.22;;;24.93;46.65
17521;BME280;8878;-33.370;-70.552;2023-01-31T12:08:28;91826.78;;;25.11;45.81
17521;BME280;8878;-33.370;-70.552;2023-01-31T12:10:58;91830.38;;;25.18;45.20
17521;BME280;8878;-33.370;-70.552;2023-01-31T12:13:31;91829.94;;;25.16;45.79
17521;BME280;8878;-33.370;-70.552;2023-01-31T12:16:13;91839.97;;;25.16;46.66
17521;BME280;8878;-33.370;-70.552;2023-01-31T12:19:04;91839.63;;;24.94;47.18
17521;BME280;8878;-33.370;-70.552;2023-01-31T12:21:48;91843.09;;;25.18;46.89
17521;BME280;8878;-33.370;-70.552;2023-01-31T12:24:30;91846.56;;;25.18;47.89
17521;BME280;8878;-33.370;-70.552;2023-01-31T12:27:11;91843.31;;;25.58;46.31
17521;BME280;8878;-33.370;-70.552;2023-01-31T12:33:12;91855.00;;;25.66;45.75
17521;BME280;8878;-33.370;-70.552;2023-01-31T12:36:04;91853.84;;;25.93;46.58
17521;BME280;8878;-33.370;-70.552;2023-01-31T12:38:45;91851.72;;;25.53;45.78
17521;BME280;8878;-33.370;-70.552;2023-01-31T12:41:25;91856.38;;;25.83;46.01
17521;BME280;8878;-33.370;-70.552;2023-01-31T12:44:07;91860.25;;;25.55;46.38
17521;BME280;8878;-33.370;-70.552;2023-01-31T12:46:53;91847.88;;;25.54;46.46
17521;BME280;8878;-33.370;-70.552;2023-01-31T12:52:26;91849.41;;;25.82;46.43
17521;BME280;8878;-33.370;-70.552;2023-01-31T12:55:10;91851.56;;;25.69;46.45
17521;BME280;8878;-33.370;-70.552;2023-01-31T12:57:49;91862.03;;;25.70;46.34
17521;BME280;8878;-33.370;-70.552;2023-01-31T13:00:26;91853.88;;;25.97;46.26
17521;BME280;8878;-33.370;-70.552;2023-01-31T13:03:22;91862.03;;;25.70;46.57
17521;BME280;8878;-33.370;-70.552;2023-01-31T13:05:56;91858.63;;;25.77;46.80
17521;BME280;8878;-33.370;-70.552;2023-01-31T13:08:33;91850.09;;;26.05;46.43
17521;BME280;8878;-33.370;-70.552;2023-01-31T13:11:06;91857.97;;;25.87;46.57
17521;BME280;8878;-33.370;-70.552;2023-01-31T13:13:40;91851.88;;;25.94;45.96
17521;BME280;8878;-33.370;-70.552;2023-01-31T13:16:15;91854.41;;;26.09;46.40
17521;BME280;8878;-33.370;-70.552;2023-01-31T13:18:49;91855.97;;;26.10;46.04
17521;BME280;8878;-33.370;-70.552;2023-01-31T13:21:23;91863.72;;;26.12;45.79
17521;BME280;8878;-33.370;-70.552;2023-01-31T13:23:59;91853.97;;;26.37;45.76
17521;BME280;8878;-33.370;-70.552;2023-01-31T13:26:34;91864.41;;;26.35;45.31
17521;BME280;8878;-33.370;-70.552;2023-01-31T13:29:08;91866.06;;;26.13;46.48
17521;BME280;8878;-33.370;-70.552;2023-01-31T13:31:44;91861.03;;;26.45;45.44
17521;BME280;8878;-33.370;-70.552;2023-01-31T13:34:19;91868.56;;;26.63;45.06
17521;BME280;8878;-33.370;-70.552;2023-01-31T13:36:54;91864.13;;;26.47;44.60